Time;durP1;ratioP1;P1;durP2;ratioP2;P2;SDS_P1;SDS_P2;PMS_P1;PMS_P2;Temp;Humidity;BMP_temperature;BMP_pressure;BME280_temperature;BME280_humidity;BME280_pressure;Samples;Min_cycle;Max_cycle;Signal;HPM_P1;HPM_P2
2023/01/29 00:01:52;;;;;;;23.08;11.00;;;3.30;99.90;;;;;;5076945;28;20036;-90
2023/01/29 00:04:18;;;;;;;21.35;10.93;;;3.30;99.90;;;;;;5076868;28;20047;-90
2023/01/29 00:06:44;;;;;;;21.50;11.88;;;3.30;99.90;;;;;;5094262;28;20519;-90
2023/01/29 00:09:10;;;;;;;22.23;12.15;;;3.30;99.90;;;;;;5076091;28;20028;-90
2023/01/29 00:11:36;;;;;;;19.90;10.80;;;3.30;99.90;;;;;;5077278;28;20043;-90
2023/01/29 00:14:02;;;;;;;20.05;10.77;;;3.30;99.90;;;;;;5076738;28;20036;-91
2023/01/29 00:16:28;;;;;;;22.83;12.73;;;3.30;99.90;;;;;;5076863;28;20035;-91
2023/01/29 00:18:53;;;;;;;21.65;11.13;;;3.30;99.90;;;;;;5061022;28;20485;-90
2023/01/29 00:21:21;;;;;;;21.20;10.88;;;3.30;99.90;;;;;;5057962;28;20036;-90
2023/01/29 00:23:47;;;;;;;22.60;12.60;;;3.30;99.90;;;;;;5072783;28;20041;-91
2023/01/29 00:26:13;;;;;;;21.08;12.15;;;3.30;99.90;;;;;;5057055;28;20040;-90
2023/01/29 00:28:39;;;;;;;22.80;11.25;;;3.30;99.90;;;;;;5056133;28;20485;-91
2023/01/29 00:31:09;;;;;;;22.65;11.70;;;3.30;99.90;;;;;;5056455;28;20397;-90
2023/01/29 00:33:35;;;;;;;20.33;11.73;;;3.30;99.90;;;;;;5058519;28;20401;-90
2023/01/29 00:36:03;;;;;;;21.45;10.85;;;3.30;99.90;;;;;;5056030;28;20119;-90
2023/01/29 00:38:29;;;;;;;21.67;10.05;;;3.40;99.90;;;;;;5072260;28;20404;-90
2023/01/29 00:46:22;;;;;;;23.70;11.05;;;3.30;99.90;;;;;;5072525;28;20036;-90
2023/01/29 00:48:48;;;;;;;18.63;10.95;;;3.30;99.90;;;;;;5056135;28;20512;-91
2023/01/29 00:51:14;;;;;;;18.45;10.80;;;3.40;99.90;;;;;;5063173;28;20043;-90
2023/01/29 00:53:39;;;;;;;18.92;11.23;;;3.40;99.90;;;;;;5076557;28;20036;-89
2023/01/29 00:56:05;;;;;;;19.30;10.77;;;3.40;99.90;;;;;;5075929;28;20114;-91
2023/01/29 00:58:33;;;;;;;22.73;11.32;;;3.40;99.90;;;;;;5075610;28;20549;-90
2023/01/29 01:01:00;;;;;;;22.02;12.10;;;3.40;99.90;;;;;;5076305;28;20501;-91
2023/01/29 01:03:27;;;;;;;21.55;12.20;;;3.40;99.90;;;;;;5088792;28;20075;-90
2023/01/29 01:06:07;;;;;;;22.45;11.32;;;3.40;99.90;;;;;;5055368;28;20558;-91
2023/01/29 01:11:17;;;;;;;20.27;10.95;;;3.40;99.90;;;;;;5092906;28;20052;-91
2023/01/29 01:13:43;;;;;;;20.38;11.00;;;3.40;99.90;;;;;;5076350;28;20112;-90
2023/01/29 01:16:11;;;;;;;21.33;12.02;;;3.40;99.90;;;;;;5075284;28;20043;-90
2023/01/29 01:18:37;;;;;;;20.35;10.50;;;3.50;99.90;;;;;;5092685;28;20160;-90
2023/01/29 01:21:03;;;;;;;20.60;10.85;;;3.40;99.90;;;;;;5074548;28;20044;-90
2023/01/29 01:23:29;;;;;;;19.52;10.57;;;3.50;99.90;;;;;;5075226;28;20044;-90
2023/01/29 01:25:55;;;;;;;23.33;11.15;;;3.50;99.90;;;;;;5075373;28;20027;-90
2023/01/29 01:28:20;;;;;;;19.20;11.30;;;3.50;99.90;;;;;;5075554;28;20386;-90
2023/01/29 01:30:46;;;;;;;20.33;10.70;;;3.50;99.90;;;;;;5076131;28;20039;-90
2023/01/29 01:33:12;;;;;;;20.25;11.18;;;3.50;99.90;;;;;;5092328;28;20092;-90
2023/01/29 01:35:39;;;;;;;22.40;11.00;;;3.50;99.90;;;;;;5075866;28;20444;-90
2023/01/29 01:38:05;;;;;;;20.77;11.23;;;3.50;99.90;;;;;;5091989;28;20500;-90
2023/01/29 01:40:31;;;;;;;20.88;11.20;;;3.50;99.90;;;;;;5091467;28;20161;-90
2023/01/29 01:42:59;;;;;;;18.65;10.10;;;3.50;99.90;;;;;;5093385;28;20103;-91
2023/01/29 01:45:35;;;;;;;19.23;10.38;;;3.50;99.90;;;;;;5091864;28;20052;-90
2023/01/29 01:48:07;;;;;;;21.67;11.18;;;3.50;99.90;;;;;;5059284;28;20489;-91
2023/01/29 01:50:44;;;;;;;18.52;9.57;;;3.50;99.90;;;;;;5055152;28;20075;-90
2023/01/29 01:53:17;;;;;;;21.08;10.50;;;3.50;99.90;;;;;;5085063;28;20081;-90
2023/01/29 01:55:49;;;;;;;19.70;8.98;;;3.50;99.90;;;;;;5072646;28;20593;-90
2023/01/29 01:58:30;;;;;;;19.02;10.80;;;3.50;99.90;;;;;;5107811;28;20784;-90
2023/01/29 02:00:57;;;;;;;20.50;10.52;;;3.50;99.90;;;;;;5074722;28;20496;-90
2023/01/29 02:11:45;;;;;;;20.98;10.93;;;3.50;99.90;;;;;;5084897;28;20146;-90
2023/01/29 02:14:11;;;;;;;20.60;11.43;;;3.50;99.90;;;;;;5091903;28;20505;-91
2023/01/29 02:16:37;;;;;;;19.48;10.10;;;3.50;99.90;;;;;;5074385;28;20079;-94
2023/01/29 02:19:08;;;;;;;19.70;11.55;;;3.50;99.90;;;;;;5090700;28;20028;-91
2023/01/29 02:21:43;;;;;;;18.95;10.45;;;3.50;99.90;;;;;;5074382;28;20107;-90
2023/01/29 02:24:15;;;;;;;19.98;10.38;;;3.50;99.90;;;;;;5091306;28;20063;-90
2023/01/29 02:27:04;;;;;;;21.27;11.07;;;3.50;99.90;;;;;;5074668;28;20036;-90
2023/01/29 02:29:44;;;;;;;19.88;11.52;;;3.60;99.90;;;;;;5073569;28;20032;-90
2023/01/29 02:32:30;;;;;;;19.70;10.02;;;3.50;99.90;;;;;;5074572;28;20083;-91
2023/01/29 02:37:57;;;;;;;18.13;10.23;;;3.50;99.90;;;;;;5091320;28;20083;-90
2023/01/29 02:40:26;;;;;;;17.63;9.13;;;3.50;99.90;;;;;;5091000;28;20040;-90
2023/01/29 02:43:01;;;;;;;20.10;10.38;;;3.50;99.90;;;;;;5073510;28;20044;-90
2023/01/29 02:45:52;;;;;;;20.27;9.88;;;3.50;99.90;;;;;;5074082;28;20044;-90
2023/01/29 02:48:23;;;;;;;19.58;10.02;;;3.50;99.90;;;;;;5073662;28;20040;-90
2023/01/29 02:51:04;;;;;;;24.58;10.63;;;3.50;99.90;;;;;;5073543;28;20397;-90
2023/01/29 02:53:41;;;;;;;20.55;11.50;;;3.50;99.90;;;;;;5091138;28;20043;-90
2023/01/29 02:56:14;;;;;;;20.08;10.05;;;3.50;99.90;;;;;;5091436;28;20178;-91
2023/01/29 02:58:48;;;;;;;;;;;3.50;99.90;;;;;;5073418;28;20077;-90
2023/01/29 03:01:22;;;;;;;19.08;10.65;;;3.50;99.90;;;;;;5073902;28;19916;-90
2023/01/29 03:03:55;;;;;;;19.88;11.13;;;3.50;99.90;;;;;;5073285;28;20064;-90
2023/01/29 03:06:24;;;;;;;;;;;3.50;99.90;;;;;;5074331;28;20036;-90
2023/01/29 03:08:58;;;;;;;20.38;10.73;;;3.50;99.90;;;;;;5073907;28;20384;-90
2023/01/29 03:11:31;;;;;;;21.73;9.85;;;3.50;99.90;;;;;;5073112;28;20044;-91
2023/01/29 03:14:22;;;;;;;21.58;11.77;;;3.50;99.90;;;;;;5074252;28;20485;-87
2023/01/29 03:16:54;;;;;;;18.85;9.95;;;3.50;99.90;;;;;;5073679;28;20509;-90
2023/01/29 03:19:35;;;;;;;20.15;10.70;;;3.50;99.90;;;;;;5073261;28;20172;-91
2023/01/29 03:22:03;;;;;;;22.52;11.88;;;3.50;99.90;;;;;;5073438;28;20036;-90
2023/01/29 03:33:19;;;;;;;21.80;11.63;;;3.50;99.90;;;;;;5090695;28;20048;-90
2023/01/29 03:35:58;;;;;;;19.63;10.18;;;3.50;99.90;;;;;;5073455;28;20164;-91
2023/01/29 03:38:28;;;;;;;21.55;11.40;;;3.50;99.90;;;;;;5073447;28;20123;-91
2023/01/29 03:41:00;;;;;;;20.35;10.55;;;3.50;99.90;;;;;;5067885;28;20033;-91
2023/01/29 03:43:44;;;;;;;18.98;10.60;;;3.50;99.90;;;;;;5053226;28;20127;-91
2023/01/29 03:46:31;;;;;;;20.25;11.13;;;3.50;99.90;;;;;;5062370;28;20040;-90
2023/01/29 03:49:11;;;;;;;22.58;11.10;;;3.50;99.90;;;;;;5073306;28;20050;-91
2023/01/29 03:51:52;;;;;;;21.48;10.95;;;3.50;99.90;;;;;;5087264;28;20047;-91
2023/01/29 03:54:25;;;;;;;20.35;11.65;;;3.50;99.90;;;;;;5053832;28;20139;-90
2023/01/29 03:57:20;;;;;;;22.05;10.30;;;3.50;99.90;;;;;;5063156;28;20039;-90
2023/01/29 03:59:52;;;;;;;19.52;9.63;;;3.50;99.90;;;;;;5073227;28;20044;-90
2023/01/29 04:02:26;;;;;;;18.75;10.10;;;3.50;99.90;;;;;;5089779;28;20036;-90
2023/01/29 04:04:56;;;;;;;23.17;11.30;;;3.50;99.90;;;;;;5073408;28;20043;-90
2023/01/29 04:07:25;;;;;;;20.60;10.93;;;3.50;99.90;;;;;;5089204;28;20440;-90
2023/01/29 04:09:58;;;;;;;22.70;11.68;;;3.60;99.90;;;;;;5072657;28;20040;-90
2023/01/29 04:12:34;;;;;;;21.83;11.70;;;3.60;99.90;;;;;;5090215;28;20131;-91
2023/01/29 04:15:00;;;;;;;19.60;10.75;;;3.50;99.90;;;;;;5089742;28;20036;-91
2023/01/29 04:17:41;;;;;;;21.25;11.30;;;3.60;99.90;;;;;;5072780;28;20044;-90
2023/01/29 04:20:08;;;;;;;19.30;10.02;;;3.60;99.90;;;;;;5066214;28;20044;-91
2023/01/29 04:22:37;;;;;;;20.90;11.57;;;3.60;99.90;;;;;;5036616;28;20040;-91
2023/01/29 04:25:14;;;;;;;22.70;11.45;;;3.60;99.90;;;;;;5057049;28;20509;-90
2023/01/29 04:27:59;;;;;;;22.15;12.40;;;3.60;99.90;;;;;;5072656;28;20043;-91
2023/01/29 04:30:33;;;;;;;20.50;11.55;;;3.60;99.90;;;;;;5073315;28;20525;-91
2023/01/29 04:33:21;;;;;;;23.00;11.23;;;3.60;99.90;;;;;;5072096;28;20039;-90
2023/01/29 04:35:58;;;;;;;22.38;12.95;;;3.60;99.90;;;;;;5072976;28;20044;-91
2023/01/29 04:38:36;;;;;;;23.17;12.48;;;3.60;99.90;;;;;;5089131;28;20043;-90
2023/01/29 04:41:29;;;;;;;22.55;10.80;;;3.70;99.90;;;;;;5033545;28;20120;-91
2023/01/29 04:44:09;;;;;;;18.98;10.77;;;3.70;99.90;;;;;;5037759;28;20036;-91
2023/01/29 04:46:41;;;;;;;18.90;10.43;;;3.70;99.90;;;;;;5075003;28;20032;-90
2023/01/29 04:49:19;;;;;;;19.15;11.23;;;3.70;99.90;;;;;;5093332;28;20122;-90
2023/01/29 04:52:07;;;;;;;21.55;11.02;;;3.70;99.90;;;;;;5092085;28;20036;-90
2023/01/29 04:54:43;;;;;;;19.00;11.20;;;3.70;99.90;;;;;;5093260;28;20040;-90
2023/01/29 04:57:15;;;;;;;19.25;10.88;;;3.70;99.90;;;;;;5076119;28;20542;-90
2023/01/29 04:59:47;;;;;;;21.63;11.43;;;3.70;99.90;;;;;;5076110;28;20032;-90
2023/01/29 05:02:13;;;;;;;23.10;11.07;;;3.70;99.90;;;;;;5076107;28;20455;-90
2023/01/29 05:04:42;;;;;;;20.02;10.65;;;3.70;99.90;;;;;;5083636;28;20036;-90
2023/01/29 05:07:12;;;;;;;24.83;12.85;;;3.80;99.90;;;;;;5055945;28;20539;-90
2023/01/29 05:09:41;;;;;;;25.05;13.32;;;3.80;99.90;;;;;;5058498;28;20032;-90
2023/01/29 05:12:09;;;;;;;23.42;12.82;;;3.80;99.90;;;;;;5092304;28;20044;-90
2023/01/29 05:14:38;;;;;;;20.50;12.15;;;3.80;99.90;;;;;;5075376;28;20164;-90
2023/01/29 05:17:09;;;;;;;26.88;13.18;;;3.80;99.90;;;;;;5092198;28;20032;-90
2023/01/29 05:19:35;;;;;;;23.70;12.15;;;3.80;99.90;;;;;;5076315;28;20040;-90
2023/01/29 05:22:04;;;;;;;21.65;12.00;;;3.80;99.90;;;;;;5075489;28;20043;-91
2023/01/29 05:24:29;;;;;;;20.60;10.65;;;3.80;99.90;;;;;;5076183;28;20078;-89
2023/01/29 05:29:45;;;;;;;21.40;11.52;;;3.80;99.90;;;;;;5052670;28;20600;-90
2023/01/29 05:32:10;;;;;;;19.75;11.55;;;3.80;99.90;;;;;;5036406;28;20486;-90
2023/01/29 05:34:36;;;;;;;21.65;12.05;;;3.80;99.90;;;;;;5075424;28;20040;-91
2023/01/29 05:37:01;;;;;;;21.38;11.50;;;3.90;99.90;;;;;;5092434;28;20088;-90
2023/01/29 05:39:27;;;;;;;23.98;11.32;;;3.80;99.90;;;;;;5091901;28;20036;-90
2023/01/29 05:41:53;;;;;;;20.02;11.68;;;3.90;99.90;;;;;;5075649;28;20048;-91
2023/01/29 05:44:19;;;;;;;19.60;11.15;;;3.90;99.90;;;;;;5076076;28;20039;-91
2023/01/29 05:46:45;;;;;;;21.35;12.77;;;3.90;99.90;;;;;;5074748;28;20039;-90
2023/01/29 05:49:11;;;;;;;16.95;9.52;;;3.90;99.90;;;;;;5075171;28;20055;-90
2023/01/29 05:51:37;;;;;;;24.58;13.23;;;3.90;99.90;;;;;;5075167;28;20036;-90
2023/01/29 05:54:03;;;;;;;21.95;13.32;;;3.90;99.90;;;;;;5090949;28;20497;-90
2023/01/29 05:56:28;;;;;;;22.02;13.02;;;3.90;99.90;;;;;;5075312;28;20044;-90
2023/01/29 05:58:55;;;;;;;24.70;12.13;;;3.90;99.90;;;;;;5091346;28;20039;-91
2023/01/29 06:01:23;;;;;;;19.55;11.82;;;3.90;99.90;;;;;;5075704;28;20447;-90
2023/01/29 06:03:49;;;;;;;20.55;11.75;;;3.90;99.90;;;;;;5074817;28;20043;-90
2023/01/29 06:06:15;;;;;;;22.83;12.82;;;3.90;99.90;;;;;;5075009;28;20036;-90
2023/01/29 06:08:41;;;;;;;21.38;12.20;;;3.90;99.90;;;;;;5074658;28;20075;-90
2023/01/29 06:11:09;;;;;;;22.85;12.98;;;3.90;99.90;;;;;;5074197;28;20086;-90
2023/01/29 06:13:34;;;;;;;20.60;11.15;;;3.90;99.90;;;;;;5074763;28;20085;-90
2023/01/29 06:16:04;;;;;;;21.25;12.20;;;3.90;99.90;;;;;;5074624;28;20437;-90
2023/01/29 06:18:30;;;;;;;16.67;9.82;;;3.90;99.90;;;;;;5073758;28;20039;-90
2023/01/29 06:21:00;;;;;;;21.60;10.93;;;3.90;99.90;;;;;;5075125;28;20081;-90
2023/01/29 06:23:25;;;;;;;21.92;13.48;;;3.80;99.90;;;;;;5091132;28;20509;-91
2023/01/29 06:25:51;;;;;;;20.42;11.50;;;3.80;99.90;;;;;;5074930;28;20079;-90
2023/01/29 06:28:17;;;;;;;26.92;12.82;;;3.80;99.90;;;;;;5090826;28;20119;-90
2023/01/29 06:30:42;;;;;;;23.25;12.52;;;3.80;99.90;;;;;;5091366;28;20116;-90
2023/01/29 06:33:08;;;;;;;23.40;13.07;;;3.80;99.90;;;;;;5074323;28;20051;-90
2023/01/29 06:35:34;;;;;;;21.73;13.85;;;3.80;99.90;;;;;;5073991;28;20068;-90
2023/01/29 06:37:59;;;;;;;21.55;12.30;;;3.80;99.90;;;;;;5054457;28;20476;-90
2023/01/29 06:40:25;;;;;;;20.90;12.10;;;3.70;99.90;;;;;;5064931;28;20043;-90
2023/01/29 06:42:50;;;;;;;21.60;12.30;;;3.80;99.90;;;;;;5074099;28;20071;-90
2023/01/29 06:45:16;;;;;;;20.88;12.20;;;3.70;99.90;;;;;;5072983;28;20132;-90
2023/01/29 06:47:42;;;;;;;22.23;13.30;;;3.70;99.90;;;;;;5072722;28;20040;-90
2023/01/29 06:50:08;;;;;;;19.77;12.45;;;3.80;99.90;;;;;;5073650;28;20051;-90
2023/01/29 06:52:34;;;;;;;20.70;12.88;;;3.80;99.90;;;;;;5071914;28;20043;-90
2023/01/29 06:54:59;;;;;;;23.02;13.27;;;3.80;99.90;;;;;;5073267;28;20036;-90
2023/01/29 06:57:28;;;;;;;23.48;13.82;;;3.80;99.90;;;;;;5072556;28;20040;-90
2023/01/29 06:59:54;;;;;;;20.13;12.02;;;3.80;99.90;;;;;;5072727;28;20085;-90
2023/01/29 07:02:20;;;;;;;24.23;13.35;;;3.80;99.90;;;;;;5072686;28;20044;-90
2023/01/29 07:04:45;;;;;;;25.75;15.48;;;3.80;99.90;;;;;;5072283;28;20121;-90
2023/01/29 07:07:14;;;;;;;25.08;15.00;;;3.80;99.90;;;;;;5072744;28;20049;-90
2023/01/29 07:09:41;;;;;;;24.80;14.65;;;3.80;99.90;;;;;;5072566;28;20036;-90
2023/01/29 07:12:10;;;;;;;23.88;14.40;;;3.80;99.90;;;;;;5089851;28;20086;-90
2023/01/29 07:14:36;;;;;;;25.02;15.10;;;3.80;99.90;;;;;;5072502;28;20075;-90
2023/01/29 07:17:02;;;;;;;24.17;14.70;;;3.80;99.90;;;;;;5071990;28;20144;-90
2023/01/29 07:19:28;;;;;;;21.85;12.50;;;3.80;99.90;;;;;;5090099;28;20043;-90
2023/01/29 07:21:53;;;;;;;20.95;12.30;;;3.80;99.90;;;;;;5089702;28;20122;-91
2023/01/29 07:24:19;;;;;;;21.35;12.98;;;3.80;99.90;;;;;;5073353;28;20433;-91
2023/01/29 07:26:45;;;;;;;23.85;12.60;;;3.80;99.90;;;;;;5073122;28;20058;-91
2023/01/29 07:29:10;;;;;;;23.20;12.50;;;3.80;99.90;;;;;;5072591;28;20187;-90
2023/01/29 07:31:36;;;;;;;21.42;12.30;;;3.80;99.90;;;;;;5072624;28;20455;-90
2023/01/29 07:34:02;;;;;;;24.55;13.35;;;3.70;99.90;;;;;;5071835;28;20450;-90
2023/01/29 07:36:28;;;;;;;23.13;11.57;;;3.70;99.90;;;;;;5071964;28;20058;-87
2023/01/29 07:38:54;;;;;;;22.45;13.30;;;3.70;99.90;;;;;;5072183;28;20122;-87
2023/01/29 07:41:20;;;;;;;22.15;13.40;;;3.70;99.90;;;;;;5089804;28;20464;-90
2023/01/29 07:43:45;;;;;;;24.98;13.55;;;3.70;99.90;;;;;;5072287;28;20473;-90
2023/01/29 07:46:11;;;;;;;26.48;14.43;;;3.70;99.90;;;;;;5089646;28;20078;-90
2023/01/29 07:48:37;;;;;;;24.30;13.13;;;3.70;99.90;;;;;;5072608;28;20032;-90
2023/01/29 07:51:02;;;;;;;23.45;14.32;;;3.70;99.90;;;;;;5072064;28;20075;-90
2023/01/29 07:53:28;;;;;;;24.27;13.15;;;3.60;99.90;;;;;;5089141;28;20048;-90
2023/01/29 07:55:54;;;;;;;24.63;13.70;;;3.60;99.90;;;;;;5088954;28;20051;-90
2023/01/29 07:58:20;;;;;;;26.10;11.90;;;3.60;99.90;;;;;;5071513;28;20039;-90
2023/01/29 08:00:46;;;;;;;21.23;12.55;;;3.60;99.90;;;;;;5072008;28;20044;-90
2023/01/29 08:03:15;;;;;;;24.00;14.77;;;3.60;99.90;;;;;;5072349;28;20116;-91
2023/01/29 08:05:42;;;;;;;24.95;14.50;;;3.60;99.90;;;;;;5072258;28;20117;-90
2023/01/29 08:08:08;;;;;;;21.52;13.38;;;3.60;99.90;;;;;;5072026;28;20200;-90
2023/01/29 08:10:35;;;;;;;25.25;14.50;;;3.60;99.90;;;;;;5072854;28;20509;-89
2023/01/29 08:13:01;;;;;;;21.85;13.18;;;3.60;99.90;;;;;;5072759;28;20058;-90
2023/01/29 08:15:27;;;;;;;25.88;14.70;;;3.60;99.90;;;;;;5071905;28;20058;-90
2023/01/29 08:17:53;;;;;;;26.02;15.70;;;3.60;99.90;;;;;;5055071;28;20072;-90
2023/01/29 08:20:20;;;;;;;24.75;14.68;;;3.60;99.90;;;;;;5054672;28;20079;-90
2023/01/29 08:22:46;;;;;;;24.83;13.23;;;3.60;99.90;;;;;;5055254;28;20044;-89
2023/01/29 08:25:12;;;;;;;21.75;12.05;;;3.60;99.90;;;;;;5055176;28;20578;-90
2023/01/29 08:27:38;;;;;;;23.67;12.85;;;3.60;99.90;;;;;;5076044;28;20105;-90
2023/01/29 08:30:05;;;;;;;26.05;14.25;;;3.60;99.90;;;;;;5075734;28;20063;-90
2023/01/29 08:32:30;;;;;;;26.00;14.15;;;3.60;99.90;;;;;;5075887;28;20150;-90
2023/01/29 08:34:56;;;;;;;23.77;13.68;;;3.60;99.90;;;;;;5092892;28;20747;-89
2023/01/29 08:37:22;;;;;;;25.00;14.73;;;3.60;99.90;;;;;;5075547;28;20040;-90
2023/01/29 08:39:47;;;;;;;26.38;15.07;;;3.60;99.90;;;;;;5075060;28;20040;-91
2023/01/29 08:42:13;;;;;;;24.52;12.82;;;3.70;99.90;;;;;;5092863;28;20524;-90
2023/01/29 08:44:38;;;;;;;26.33;13.45;;;3.60;99.90;;;;;;5075984;28;20040;-90
2023/01/29 08:47:04;;;;;;;25.35;14.55;;;3.60;99.90;;;;;;5075453;28;20043;-90
2023/01/29 08:49:30;;;;;;;23.20;13.38;;;3.70;99.90;;;;;;5076157;28;20040;-90
2023/01/29 08:51:56;;;;;;;22.52;12.30;;;3.70;99.90;;;;;;5074578;28;20043;-89
2023/01/29 08:54:22;;;;;;;24.17;12.88;;;3.70;99.90;;;;;;5076074;28;20032;-90
2023/01/29 08:56:48;;;;;;;26.90;13.40;;;3.70;99.90;;;;;;5091400;28;20068;-90
2023/01/29 08:59:14;;;;;;;23.98;13.10;;;3.70;99.90;;;;;;5076036;28;20384;-90
2023/01/29 09:01:40;;;;;;;28.83;15.40;;;3.70;99.90;;;;;;5074973;28;20533;-90
2023/01/29 09:04:06;;;;;;;27.90;15.00;;;3.70;99.90;;;;;;5076261;28;20405;-90
2023/01/29 09:06:32;;;;;;;26.27;15.88;;;3.70;99.90;;;;;;5093389;28;20032;-90
2023/01/29 09:08:57;;;;;;;25.10;15.50;;;3.70;99.90;;;;;;5075012;28;20043;-90
2023/01/29 09:11:25;;;;;;;23.23;13.43;;;3.70;99.90;;;;;;5076200;28;20036;-90
2023/01/29 09:13:51;;;;;;;25.13;14.40;;;3.70;99.90;;;;;;5076073;28;20038;-90
2023/01/29 09:16:17;;;;;;;22.83;12.98;;;3.70;99.90;;;;;;5092275;28;20044;-90
2023/01/29 09:18:42;;;;;;;25.13;14.57;;;3.70;99.90;;;;;;5075437;28;20040;-90
2023/01/29 09:21:09;;;;;;;24.20;13.90;;;3.70;99.90;;;;;;5074584;28;20047;-90
2023/01/29 09:23:34;;;;;;;23.13;12.02;;;3.80;99.90;;;;;;5075779;28;20047;-89
2023/01/29 09:26:00;;;;;;;29.55;14.38;;;3.80;99.90;;;;;;5076127;28;20405;-90
2023/01/29 09:28:26;;;;;;;21.25;12.23;;;3.80;99.90;;;;;;5073711;28;20044;-89
2023/01/29 09:30:52;;;;;;;22.92;12.18;;;3.80;99.90;;;;;;5091976;28;20043;-90
2023/01/29 09:33:18;;;;;;;37.03;15.20;;;3.80;99.90;;;;;;5091891;28;20085;-90
2023/01/29 09:35:47;;;;;;;24.67;14.57;;;3.80;99.90;;;;;;5093496;28;20044;-91
2023/01/29 09:38:13;;;;;;;25.63;13.65;;;3.80;99.90;;;;;;5092941;28;20039;-91
2023/01/29 09:40:58;;;;;;;24.02;13.05;;;3.90;99.90;;;;;;5074448;28;20116;-90
2023/01/29 09:43:46;;;;;;;22.88;13.82;;;3.90;99.90;;;;;;5075523;28;20044;-90
2023/01/29 09:46:22;;;;;;;26.23;15.20;;;3.90;99.90;;;;;;5055194;28;20401;-90
2023/01/29 09:49:02;;;;;;;22.73;14.05;;;3.90;99.90;;;;;;5070291;28;20107;-90
2023/01/29 09:51:43;;;;;;;24.13;13.95;;;4.00;99.90;;;;;;5052503;28;20545;-90
2023/01/29 09:54:32;;;;;;;28.52;15.98;;;4.00;99.90;;;;;;5053758;28;20055;-90
2023/01/29 09:57:00;;;;;;;25.80;14.20;;;4.10;99.90;;;;;;5053821;28;20048;-90
2023/01/29 09:59:30;;;;;;;23.13;14.43;;;4.10;99.90;;;;;;5065570;28;20040;-89
2023/01/29 10:02:10;;;;;;;25.20;13.73;;;4.20;99.90;;;;;;5074174;28;20584;-91
2023/01/29 10:04:51;;;;;;;26.60;14.88;;;4.20;99.90;;;;;;5073730;28;20040;-90
2023/01/29 10:07:56;;;;;;;28.50;17.05;;;4.20;99.90;;;;;;5073936;28;20085;-90
2023/01/29 10:10:27;;;;;;;26.67;14.50;;;4.30;99.90;;;;;;5090588;28;20040;-91
2023/01/29 10:13:24;;;;;;;21.00;11.75;;;4.40;99.90;;;;;;5068439;28;20503;-91
2023/01/29 10:16:01;;;;;;;17.85;10.13;;;4.40;99.90;;;;;;5072114;28;20032;-91
2023/01/29 10:18:45;;;;;;;23.67;13.82;;;4.40;99.90;;;;;;5073345;28;20047;-91
2023/01/29 10:21:29;;;;;;;26.00;15.30;;;4.50;99.90;;;;;;5073576;28;20447;-90
2023/01/29 10:24:01;;;;;;;18.77;10.75;;;4.50;99.90;;;;;;5073612;28;20409;-90
2023/01/29 10:26:28;;;;;;;18.30;10.18;;;4.50;99.90;;;;;;5073976;28;20040;-88
2023/01/29 10:28:58;;;;;;;18.38;10.65;;;4.60;99.90;;;;;;5063068;28;20599;-92
2023/01/29 10:31:35;;;;;;;23.15;14.02;;;4.60;99.90;;;;;;5054390;28;20489;-90
2023/01/29 10:34:32;;;;;;;21.23;12.15;;;4.60;99.90;;;;;;5051833;28;20062;-90
2023/01/29 10:36:58;;;;;;;22.75;12.63;;;4.60;99.90;;;;;;5052123;28;20519;-91
2023/01/29 10:39:25;;;;;;;23.92;14.50;;;4.60;99.90;;;;;;5050763;28;20506;-90
2023/01/29 10:42:11;;;;;;;23.95;14.10;;;4.60;99.90;;;;;;5067823;28;20777;-91
2023/01/29 10:44:49;;;;;;;23.00;13.10;;;4.60;99.90;;;;;;5050702;28;20045;-91
2023/01/29 10:47:46;;;;;;;25.00;13.70;;;4.60;99.90;;;;;;5058935;28;20032;-90
2023/01/29 10:50:43;;;;;;;25.10;14.73;;;4.60;99.90;;;;;;5082944;28;20119;-91
2023/01/29 10:53:45;;;;;;;21.48;12.45;;;4.70;99.90;;;;;;5033726;28;20055;-91
2023/01/29 10:56:34;;;;;;;19.67;11.52;;;4.70;99.90;;;;;;5065513;28;20093;-91
2023/01/29 10:59:08;;;;;;;24.02;14.52;;;4.70;99.90;;;;;;5073273;28;20121;-91
2023/01/29 11:01:33;;;;;;;19.92;11.27;;;4.70;99.90;;;;;;5072951;28;20122;-91
2023/01/29 11:04:02;;;;;;;21.88;12.35;;;4.70;99.90;;;;;;5073474;28;20123;-90
2023/01/29 11:06:35;;;;;;;24.08;14.60;;;4.70;99.90;;;;;;5090181;28;20036;-91
2023/01/29 11:09:00;;;;;;;24.55;14.10;;;4.80;99.90;;;;;;5089308;28;20036;-91
2023/01/29 11:11:40;;;;;;;21.00;12.10;;;4.80;99.90;;;;;;5073336;28;20039;-91
2023/01/29 11:14:34;;;;;;;19.88;10.70;;;4.80;99.90;;;;;;5071928;28;20148;-91
2023/01/29 11:17:00;;;;;;;20.13;10.68;;;4.80;99.90;;;;;;5071069;28;20119;-92
2023/01/29 11:19:46;;;;;;;24.98;12.68;;;4.80;99.90;;;;;;5073407;28;20078;-91
2023/01/29 11:22:14;;;;;;;20.27;12.07;;;4.80;99.90;;;;;;5074235;28;20036;-92
2023/01/29 11:24:40;;;;;;;17.00;10.57;;;4.90;99.90;;;;;;5088820;28;20042;-91
2023/01/29 11:27:25;;;;;;;19.35;10.85;;;4.80;99.90;;;;;;5088624;28;20673;-91
2023/01/29 11:29:52;;;;;;;22.30;12.25;;;4.90;99.90;;;;;;5070848;28;20040;-92
2023/01/29 11:32:25;;;;;;;23.30;13.00;;;4.90;99.90;;;;;;5073355;28;20047;-92
2023/01/29 11:35:08;;;;;;;21.42;10.90;;;4.90;99.90;;;;;;5073838;28;20046;-91
2023/01/29 11:37:40;;;;;;;20.23;11.50;;;4.90;99.90;;;;;;5073405;28;20409;-92
2023/01/29 11:40:17;;;;;;;21.55;10.73;;;4.90;99.90;;;;;;5073479;28;20051;-92
2023/01/29 11:42:47;;;;;;;19.70;12.30;;;4.80;99.90;;;;;;5073655;28;20501;-91
2023/01/29 11:45:19;;;;;;;20.83;11.80;;;4.80;99.90;;;;;;5073328;28;20035;-91
2023/01/29 11:48:03;;;;;;;26.52;15.20;;;4.80;99.90;;;;;;5090311;28;20101;-91
2023/01/29 11:50:32;;;;;;;21.38;13.38;;;4.80;99.90;;;;;;5072577;28;20036;-91
2023/01/29 11:52:59;;;;;;;22.30;12.32;;;4.80;99.90;;;;;;5073802;28;20428;-91
2023/01/29 11:55:31;;;;;;;19.55;11.98;;;4.80;99.90;;;;;;5073266;28;20039;-92
2023/01/29 11:58:11;;;;;;;20.40;12.18;;;4.80;99.90;;;;;;5073164;28;20497;-91
2023/01/29 12:00:41;;;;;;;22.98;11.48;;;4.70;99.90;;;;;;5073147;28;20048;-91
2023/01/29 12:03:11;;;;;;;23.73;14.93;;;4.70;99.90;;;;;;5073150;28;20173;-91
2023/01/29 12:05:38;;;;;;;25.33;13.73;;;4.70;99.90;;;;;;5063451;28;20043;-91
2023/01/29 12:08:15;;;;;;;21.67;12.25;;;4.70;99.90;;;;;;5070114;28;20033;-91
2023/01/29 12:10:42;;;;;;;19.48;12.18;;;4.70;99.90;;;;;;5067696;28;20041;-91
2023/01/29 12:13:14;;;;;;;19.73;12.65;;;4.70;99.90;;;;;;5052363;28;20040;-91
2023/01/29 12:15:43;;;;;;;21.60;12.30;;;4.70;99.90;;;;;;5052358;28;20070;-91
2023/01/29 12:18:35;;;;;;;25.30;13.75;;;4.70;99.90;;;;;;5051731;28;20498;-90
2023/01/29 12:21:12;;;;;;;24.23;14.02;;;4.80;99.90;;;;;;5068162;28;20040;-90
2023/01/29 12:24:21;;;;;;;24.92;14.02;;;4.70;99.90;;;;;;5051358;28;20044;-91
2023/01/29 12:26:54;;;;;;;24.30;13.65;;;4.70;99.90;;;;;;4995871;28;20037;-91
2023/01/29 12:29:36;;;;;;;27.75;14.75;;;4.70;99.90;;;;;;5063314;28;20052;-91
2023/01/29 12:32:15;;;;;;;24.58;14.38;;;4.70;99.90;;;;;;5051893;28;20077;-90
2023/01/29 12:34:45;;;;;;;28.75;15.40;;;4.70;99.90;;;;;;5076355;28;20132;-91
2023/01/29 12:37:13;;;;;;;25.58;15.73;;;4.60;99.90;;;;;;5052328;28;20036;-90
2023/01/29 12:39:39;;;;;;;25.88;13.48;;;4.60;99.90;;;;;;5052926;28;20439;-91
2023/01/29 12:42:21;;;;;;;22.52;13.00;;;4.60;99.90;;;;;;5069496;28;20537;-90
2023/01/29 12:45:06;;;;;;;24.40;12.90;;;4.60;99.90;;;;;;5051587;28;20039;-91
2023/01/29 12:47:47;;;;;;;24.55;12.85;;;4.60;99.90;;;;;;5080002;28;20544;-90
2023/01/29 12:50:18;;;;;;;26.40;14.80;;;4.60;99.90;;;;;;5068365;28;20492;-90
2023/01/29 12:52:46;;;;;;;25.20;15.13;;;4.60;99.90;;;;;;5070526;28;20039;-91
2023/01/29 12:55:22;;;;;;;28.40;16.00;;;4.60;99.90;;;;;;5070041;28;20075;-92
2023/01/29 12:58:13;;;;;;;25.40;14.10;;;4.60;99.90;;;;;;5089262;28;20206;-90
2023/01/29 13:00:44;;;;;;;28.55;15.43;;;4.60;99.90;;;;;;5066385;28;20048;-92
2023/01/29 13:03:16;;;;;;;27.92;16.75;;;4.50;99.90;;;;;;5073693;28;20109;-90
2023/01/29 13:05:46;;;;;;;29.75;16.38;;;4.50;99.90;;;;;;5066765;28;20040;-91
2023/01/29 13:08:41;;;;;;;23.70;13.98;;;4.50;99.90;;;;;;5093448;28;20039;-91
2023/01/29 13:11:14;;;;;;;26.25;15.48;;;4.50;99.90;;;;;;5073166;28;20066;-91
2023/01/29 13:14:15;;;;;;;23.70;13.65;;;4.50;99.90;;;;;;5075199;28;20040;-91
2023/01/29 13:16:45;;;;;;;28.20;15.32;;;4.40;99.90;;;;;;5006094;28;20054;-92
2023/01/29 13:19:26;;;;;;;20.92;12.82;;;4.40;99.90;;;;;;5075141;28;20044;-91
2023/01/29 13:21:55;;;;;;;27.70;13.80;;;4.40;99.90;;;;;;5068913;28;20048;-92
2023/01/29 13:24:24;;;;;;;24.88;14.65;;;4.40;99.90;;;;;;5093288;28;20059;-91
2023/01/29 13:26:50;;;;;;;26.17;15.75;;;4.30;99.90;;;;;;5074978;28;20036;-92
2023/01/29 13:29:32;;;;;;;27.85;15.77;;;4.30;99.90;;;;;;5070657;28;20033;-92
2023/01/29 13:32:01;;;;;;;29.27;17.25;;;4.30;99.90;;;;;;5052248;28;20429;-90